Time;durP1;ratioP1;P1;durP2;ratioP2;P2;SDS_P1;SDS_P2;PMS_P1;PMS_P2;Temp;Humidity;BMP_temperature;BMP_pressure;BME280_temperature;BME280_humidity;BME280_pressure;Samples;Min_cycle;Max_cycle;Signal;HPM_P1;HPM_P2
2021/08/31 00:00:53;;;;;;;3.05;1.00;;;;;;;;;;5094471;28;20064;-65
2021/08/31 00:03:20;;;;;;;3.63;1.00;;;;;;;;;;5094718;28;20063;-65
2021/08/31 00:05:46;;;;;;;1.20;0.90;;;;;;;;;;5094606;28;20029;-65
2021/08/31 00:08:12;;;;;;;1.95;0.90;;;;;;;;;;5094744;28;20043;-65
2021/08/31 00:10:38;;;;;;;2.05;1.05;;;;;;;;;;5094484;28;20036;-66
2021/08/31 00:13:04;;;;;;;2.92;1.02;;;;;;;;;;5094227;28;20090;-65
2021/08/31 00:15:31;;;;;;;2.05;1.25;;;;;;;;;;5094383;28;20059;-65
2021/08/31 00:18:00;;;;;;;4.53;1.10;;;;;;;;;;5094253;28;20028;-66
2021/08/31 00:20:26;;;;;;;1.42;1.13;;;;;;;;;;5094158;28;20500;-65
2021/08/31 00:22:53;;;;;;;3.22;1.13;;;;;;;;;;5094189;28;20055;-66
2021/08/31 00:25:19;;;;;;;1.38;1.00;;;;;;;;;;5093662;28;20526;-65
2021/08/31 00:27:45;;;;;;;2.33;1.02;;;;;;;;;;5093868;28;20036;-66
2021/08/31 00:30:11;;;;;;;2.00;1.05;;;;;;;;;;5094037;28;20032;-65
2021/08/31 00:32:37;;;;;;;1.30;1.10;;;;;;;;;;5093910;28;20039;-65
2021/08/31 00:35:03;;;;;;;1.73;1.10;;;;;;;;;;5093699;28;20119;-65
2021/08/31 00:37:29;;;;;;;1.52;1.00;;;;;;;;;;5094027;28;20036;-65
2021/08/31 00:39:56;;;;;;;2.33;0.98;;;;;;;;;;5093747;28;20558;-64
2021/08/31 00:42:22;;;;;;;3.22;0.95;;;;;;;;;;5093743;28;20040;-66
2021/08/31 00:44:50;;;;;;;2.85;1.10;;;;;;;;;;5093426;28;20036;-65
2021/08/31 00:47:16;;;;;;;2.20;1.00;;;;;;;;;;5093384;28;20082;-66
2021/08/31 00:49:42;;;;;;;4.53;1.00;;;;;;;;;;5093880;28;20044;-66
2021/08/31 00:52:08;;;;;;;2.60;1.30;;;;;;;;;;5093884;28;20066;-66
2021/08/31 00:54:35;;;;;;;3.97;1.00;;;;;;;;;;5093592;28;20040;-67
2021/08/31 00:57:02;;;;;;;1.75;1.20;;;;;;;;;;5093156;28;20388;-66
2021/08/31 00:59:28;;;;;;;3.65;1.17;;;;;;;;;;5090633;28;20036;-66
2021/08/31 01:01:54;;;;;;;2.17;1.33;;;;;;;;;;5090835;28;20040;-68
2021/08/31 01:04:24;;;;;;;1.88;1.40;;;;;;;;;;5091142;28;20034;-69
2021/08/31 01:06:52;;;;;;;3.03;1.30;;;;;;;;;;5093279;28;20115;-70
2021/08/31 01:09:18;;;;;;;5.57;1.63;;;;;;;;;;5093034;28;20127;-65
2021/08/31 01:11:46;;;;;;;2.85;1.48;;;;;;;;;;5093176;28;20438;-67
2021/08/31 01:14:12;;;;;;;5.10;1.40;;;;;;;;;;5093165;28;20400;-66
2021/08/31 01:16:39;;;;;;;5.32;1.48;;;;;;;;;;5093249;28;20051;-65
2021/08/31 01:19:05;;;;;;;1.80;1.40;;;;;;;;;;5092990;28;20028;-69
2021/08/31 01:21:31;;;;;;;3.05;1.30;;;;;;;;;;5092376;28;20036;-65
2021/08/31 01:23:57;;;;;;;3.58;1.40;;;;;;;;;;5092870;28;20048;-65
2021/08/31 01:26:24;;;;;;;3.90;1.30;;;;;;;;;;5092907;28;20028;-67
2021/08/31 01:28:50;;;;;;;3.13;1.20;;;;;;;;;;5092784;28;20032;-66
2021/08/31 01:31:16;;;;;;;2.28;1.20;;;;;;;;;;5092747;28;20066;-65
2021/08/31 01:33:42;;;;;;;2.42;1.33;;;;;;;;;;5092452;28;20435;-66
2021/08/31 01:36:19;;;;;;;2.00;1.17;;;;;;;;;;5092422;28;20047;-65
2021/08/31 01:38:46;;;;;;;3.85;1.20;;;;;;;;;;5092357;28;20371;-68
2021/08/31 01:41:12;;;;;;;4.88;1.33;;;;;;;;;;5092718;28;20059;-66
2021/08/31 01:43:38;;;;;;;1.33;1.10;;;;;;;;;;5092753;28;20032;-67
2021/08/31 01:46:04;;;;;;;2.85;1.02;;;;;;;;;;5092959;28;20078;-67
2021/08/31 01:48:30;;;;;;;3.15;1.00;;;;;;;;;;5092756;28;20040;-66
2021/08/31 01:50:56;;;;;;;3.20;1.02;;;;;;;;;;5092486;28;20067;-66
2021/08/31 01:53:22;;;;;;;2.85;1.10;;;;;;;;;;5092775;28;20028;-67
2021/08/31 01:55:48;;;;;;;1.45;1.27;;;;;;;;;;5092589;28;20078;-67
2021/08/31 01:58:15;;;;;;;2.47;1.30;;;;;;;;;;5092169;28;20028;-65
2021/08/31 02:00:41;;;;;;;3.00;1.00;;;;;;;;;;5092474;28;20118;-68
2021/08/31 02:03:07;;;;;;;3.30;1.08;;;;;;;;;;5092819;28;20495;-67
2021/08/31 02:05:33;;;;;;;3.60;0.90;;;;;;;;;;5092718;28;20032;-67
2021/08/31 02:07:59;;;;;;;1.52;0.98;;;;;;;;;;5092484;28;20477;-69
2021/08/31 02:10:25;;;;;;;1.55;1.20;;;;;;;;;;5093061;28;20039;-66
2021/08/31 02:12:51;;;;;;;5.50;0.90;;;;;;;;;;5092605;28;20032;-65
2021/08/31 02:15:17;;;;;;;1.20;1.00;;;;;;;;;;5092621;28;20087;-65
2021/08/31 02:17:44;;;;;;;4.53;1.27;;;;;;;;;;5092395;28;20445;-65
2021/08/31 02:20:10;;;;;;;2.08;0.82;;;;;;;;;;5091899;28;20424;-66
2021/08/31 02:22:36;;;;;;;4.60;0.90;;;;;;;;;;5090731;28;20063;-65
2021/08/31 02:25:02;;;;;;;3.30;0.90;;;;;;;;;;5075053;28;20053;-65
2021/08/31 02:27:28;;;;;;;3.55;0.75;;;;;;;;;;5072400;28;20031;-65
2021/08/31 02:29:54;;;;;;;2.25;0.75;;;;;;;;;;5072060;28;20041;-65
2021/08/31 02:32:20;;;;;;;3.80;0.95;;;;;;;;;;5071917;28;20033;-66
2021/08/31 02:34:46;;;;;;;2.90;0.75;;;;;;;;;;5071954;28;20045;-65
2021/08/31 02:37:12;;;;;;;7.57;0.90;;;;;;;;;;5072008;28;20110;-69
2021/08/31 02:39:38;;;;;;;1.88;0.80;;;;;;;;;;5054130;28;20123;-66
2021/08/31 02:42:04;;;;;;;1.77;0.80;;;;;;;;;;5072276;28;20033;-66
2021/08/31 02:44:31;;;;;;;2.40;0.63;;;;;;;;;;5071953;28;20107;-65
2021/08/31 02:46:57;;;;;;;1.73;0.80;;;;;;;;;;5071897;28;20033;-65
2021/08/31 02:49:23;;;;;;;4.18;0.80;;;;;;;;;;5071982;28;20096;-65
2021/08/31 02:51:49;;;;;;;2.60;0.60;;;;;;;;;;5074574;28;20079;-66
2021/08/31 02:54:15;;;;;;;4.20;0.77;;;;;;;;;;5075630;28;20528;-67
2021/08/31 02:56:41;;;;;;;3.65;0.70;;;;;;;;;;5075420;28;20071;-67
2021/08/31 02:59:07;;;;;;;0.98;0.63;;;;;;;;;;5075365;28;20079;-65
2021/08/31 03:02:04;;;;;;;2.58;1.23;;;;;;;;;;5075292;28;20036;-66
2021/08/31 03:04:28;;;;;;;2.67;1.05;;;;;;;;;;5074963;28;20037;-65
2021/08/31 03:06:54;;;;;;;2.85;0.90;;;;;;;;;;5075239;28;20440;-66
2021/08/31 03:09:20;;;;;;;6.43;1.20;;;;;;;;;;5075154;28;20037;-67
2021/08/31 03:11:46;;;;;;;3.63;0.80;;;;;;;;;;5075408;28;20041;-66
2021/08/31 03:14:12;;;;;;;1.95;0.90;;;;;;;;;;5075177;28;20098;-66
2021/08/31 03:16:38;;;;;;;2.60;0.95;;;;;;;;;;5074969;28;20048;-65
2021/08/31 03:19:04;;;;;;;1.00;0.80;;;;;;;;;;5075195;28;20037;-66
2021/08/31 03:21:30;;;;;;;2.00;0.90;;;;;;;;;;5074966;28;20086;-65
2021/08/31 03:23:56;;;;;;;3.38;1.20;;;;;;;;;;5082483;28;20052;-65
2021/08/31 03:26:22;;;;;;;1.98;0.93;;;;;;;;;;5095386;28;20028;-66
2021/08/31 03:28:48;;;;;;;3.08;1.00;;;;;;;;;;5094992;28;20081;-65
2021/08/31 03:31:14;;;;;;;3.65;1.00;;;;;;;;;;5095103;28;20107;-66
2021/08/31 03:33:40;;;;;;;4.90;1.23;;;;;;;;;;5095179;28;20119;-65
2021/08/31 03:36:06;;;;;;;5.93;1.08;;;;;;;;;;5094969;28;20511;-65
2021/08/31 03:38:32;;;;;;;4.32;0.90;;;;;;;;;;5094947;28;20051;-66
2021/08/31 03:40:58;;;;;;;2.17;1.25;;;;;;;;;;5094935;28;20111;-66
2021/08/31 03:43:24;;;;;;;3.50;1.17;;;;;;;;;;5094979;28;20384;-66
2021/08/31 03:45:50;;;;;;;2.45;1.50;;;;;;;;;;5094979;28;20103;-64
2021/08/31 03:48:17;;;;;;;1.30;1.00;;;;;;;;;;5095050;28;20170;-65
2021/08/31 03:50:43;;;;;;;3.67;0.90;;;;;;;;;;5094931;28;20036;-65
2021/08/31 03:53:09;;;;;;;3.72;1.08;;;;;;;;;;5094774;28;20040;-66
2021/08/31 03:55:35;;;;;;;2.13;1.20;;;;;;;;;;5094816;28;20040;-67
2021/08/31 03:58:05;;;;;;;2.35;0.90;;;;;;;;;;5094418;28;20032;-66
2021/08/31 04:00:31;;;;;;;3.60;1.25;;;;;;;;;;5094537;28;20212;-66
2021/08/31 04:02:57;;;;;;;3.60;1.27;;;;;;;;;;5094175;28;20030;-70
2021/08/31 04:05:23;;;;;;;1.95;1.00;;;;;;;;;;5094389;28;20024;-67
2021/08/31 04:07:49;;;;;;;2.92;0.90;;;;;;;;;;5094440;28;20032;-69
2021/08/31 04:10:15;;;;;;;1.10;0.85;;;;;;;;;;5094513;28;20054;-65
2021/08/31 04:12:41;;;;;;;3.75;1.00;;;;;;;;;;5094038;28;20035;-67
2021/08/31 04:15:07;;;;;;;3.08;0.80;;;;;;;;;;5094245;28;20043;-65
2021/08/31 04:17:33;;;;;;;1.42;0.60;;;;;;;;;;5094390;28;20055;-65
2021/08/31 04:19:59;;;;;;;3.72;0.80;;;;;;;;;;5094479;28;20060;-67
2021/08/31 04:22:25;;;;;;;1.45;0.80;;;;;;;;;;5094247;28;20036;-65
2021/08/31 04:24:51;;;;;;;2.28;0.70;;;;;;;;;;5093954;28;20044;-66
2021/08/31 04:27:17;;;;;;;2.35;1.10;;;;;;;;;;5093796;28;20366;-66
2021/08/31 04:29:43;;;;;;;3.00;1.05;;;;;;;;;;5093649;28;20043;-67
2021/08/31 04:32:09;;;;;;;4.25;1.30;;;;;;;;;;5093630;28;20040;-66
2021/08/31 04:34:35;;;;;;;2.70;1.10;;;;;;;;;;5093628;28;20392;-67
2021/08/31 04:37:01;;;;;;;4.22;1.10;;;;;;;;;;5093520;28;20048;-69
2021/08/31 04:39:27;;;;;;;4.00;1.20;;;;;;;;;;5093699;28;20032;-66
2021/08/31 04:41:54;;;;;;;3.70;1.10;;;;;;;;;;5093606;28;20036;-67
2021/08/31 04:44:20;;;;;;;4.35;1.33;;;;;;;;;;5093326;28;20058;-67
2021/08/31 04:46:46;;;;;;;3.85;1.23;;;;;;;;;;5092002;28;20052;-67
2021/08/31 04:49:12;;;;;;;2.90;1.10;;;;;;;;;;5093310;28;20452;-66
2021/08/31 04:51:38;;;;;;;3.08;1.20;;;;;;;;;;5093697;28;20036;-66
2021/08/31 04:54:04;;;;;;;2.97;1.48;;;;;;;;;;5093602;28;20032;-66
2021/08/31 04:56:30;;;;;;;5.75;1.67;;;;;;;;;;5092465;28;20480;-67
2021/08/31 04:58:56;;;;;;;6.35;1.50;;;;;;;;;;5093146;28;20112;-66
2021/08/31 05:01:22;;;;;;;4.32;1.33;;;;;;;;;;5092535;28;20122;-67
2021/08/31 05:03:48;;;;;;;5.25;1.38;;;;;;;;;;5091346;28;20040;-67
2021/08/31 05:06:14;;;;;;;3.78;1.48;;;;;;;;;;5091827;28;20036;-66
2021/08/31 05:08:40;;;;;;;3.85;1.45;;;;;;;;;;5092569;28;20047;-66
2021/08/31 05:11:07;;;;;;;7.25;1.60;;;;;;;;;;5092553;28;20032;-66
2021/08/31 05:13:39;;;;;;;4.85;1.33;;;;;;;;;;5092439;28;20322;-67
2021/08/31 05:16:05;;;;;;;13.07;1.50;;;;;;;;;;5093836;28;20123;-66
2021/08/31 05:18:32;;;;;;;5.97;1.35;;;;;;;;;;5095203;28;20032;-67
2021/08/31 05:20:58;;;;;;;3.30;1.02;;;;;;;;;;5094143;28;20036;-68
2021/08/31 05:23:24;;;;;;;3.03;1.00;;;;;;;;;;5089390;28;20060;-67
2021/08/31 05:25:50;;;;;;;2.72;1.30;;;;;;;;;;5071051;28;20489;-67
2021/08/31 05:28:16;;;;;;;4.15;1.08;;;;;;;;;;5070918;28;20046;-67
2021/08/31 05:30:42;;;;;;;9.50;1.88;;;;;;;;;;5069739;28;20037;-67
2021/08/31 05:33:08;;;;;;;12.35;1.85;;;;;;;;;;5070378;28;20037;-67
2021/08/31 05:35:34;;;;;;;14.35;1.90;;;;;;;;;;5054505;28;20045;-68
2021/08/31 05:38:00;;;;;;;9.15;2.10;;;;;;;;;;5072445;28;20037;-67
2021/08/31 05:40:26;;;;;;;10.60;2.38;;;;;;;;;;5072379;28;20056;-66
2021/08/31 05:42:52;;;;;;;15.20;3.28;;;;;;;;;;5072572;28;20029;-66
2021/08/31 05:45:18;;;;;;;15.77;4.10;;;;;;;;;;5072744;28;20036;-66
2021/08/31 05:47:44;;;;;;;9.10;2.15;;;;;;;;;;5072771;28;20159;-66
2021/08/31 05:50:11;;;;;;;12.15;2.00;;;;;;;;;;5072608;28;20040;-68
2021/08/31 05:52:37;;;;;;;7.35;1.63;;;;;;;;;;5072400;28;20388;-67
2021/08/31 05:55:03;;;;;;;7.28;1.52;;;;;;;;;;5072790;28;20048;-66
2021/08/31 05:57:29;;;;;;;5.43;1.20;;;;;;;;;;5072372;28;20035;-68
2021/08/31 05:59:55;;;;;;;3.58;1.30;;;;;;;;;;5072487;28;20480;-66
2021/08/31 06:02:21;;;;;;;5.45;1.35;;;;;;;;;;5072406;28;20028;-66
2021/08/31 06:04:47;;;;;;;2.58;1.00;;;;;;;;;;5072628;28;20033;-65
2021/08/31 06:07:13;;;;;;;5.88;2.05;;;;;;;;;;5072643;28;20025;-65
2021/08/31 06:09:41;;;;;;;3.90;1.50;;;;;;;;;;5072375;28;20115;-65
2021/08/31 06:12:08;;;;;;;4.60;1.15;;;;;;;;;;5072374;28;20511;-65
2021/08/31 06:14:35;;;;;;;4.07;1.05;;;;;;;;;;5071982;28;20059;-66
2021/08/31 06:17:01;;;;;;;4.40;1.10;;;;;;;;;;5072263;28;20044;-66
2021/08/31 06:19:27;;;;;;;2.67;0.73;;;;;;;;;;5072200;28;20032;-65
2021/08/31 06:21:53;;;;;;;3.00;1.02;;;;;;;;;;5072547;28;20112;-65
2021/08/31 06:24:19;;;;;;;2.60;0.98;;;;;;;;;;5083620;28;20050;-66
2021/08/31 06:26:45;;;;;;;1.40;0.90;;;;;;;;;;5096693;28;20481;-66
2021/08/31 06:29:11;;;;;;;2.00;0.90;;;;;;;;;;5096616;28;20404;-66
2021/08/31 06:31:37;;;;;;;3.17;0.90;;;;;;;;;;5096631;28;20051;-66
2021/08/31 06:34:03;;;;;;;3.88;0.98;;;;;;;;;;5096206;28;20028;-67
2021/08/31 06:36:30;;;;;;;3.25;1.13;;;;;;;;;;5096243;28;20055;-65
2021/08/31 06:38:56;;;;;;;7.13;1.58;;;;;;;;;;5078399;28;20115;-67
2021/08/31 06:41:22;;;;;;;3.38;0.93;;;;;;;;;;5096643;28;20067;-65
2021/08/31 06:43:47;;;;;;;1.10;0.80;;;;;;;;;;5096291;28;20503;-65
2021/08/31 06:46:14;;;;;;;3.53;0.98;;;;;;;;;;5096059;28;20072;-65
2021/08/31 06:48:44;;;;;;;5.13;1.10;;;;;;;;;;5095797;28;20488;-66
2021/08/31 06:51:11;;;;;;;3.20;1.15;;;;;;;;;;5095576;28;20036;-66
2021/08/31 06:53:37;;;;;;;3.20;0.90;;;;;;;;;;5095674;28;20469;-66
2021/08/31 06:56:03;;;;;;;5.53;0.90;;;;;;;;;;5095968;28;20047;-66
2021/08/31 06:58:29;;;;;;;1.55;0.73;;;;;;;;;;5095833;28;20028;-65
2021/08/31 07:00:56;;;;;;;2.42;1.30;;;;;;;;;;5095007;28;20108;-70
2021/08/31 07:03:22;;;;;;;2.80;0.90;;;;;;;;;;5095071;28;20040;-66
2021/08/31 07:06:17;;;;;;;2.05;1.23;;;;;;;;;;5095137;28;20031;-81
2021/08/31 07:08:47;;;;;;;3.20;1.65;;;;;;;;;;5094959;28;20043;-65
2021/08/31 07:11:14;;;;;;;2.95;1.00;;;;;;;;;;5099053;28;20054;-65
2021/08/31 07:13:40;;;;;;;1.48;0.73;;;;;;;;;;5098519;28;20028;-67
2021/08/31 07:16:06;;;;;;;1.20;0.60;;;;;;;;;;5099180;28;20484;-65
2021/08/31 07:18:44;;;;;;;7.32;1.08;;;;;;;;;;5095756;28;20047;-77
2021/08/31 07:21:30;;;;;;;1.45;0.80;;;;;;;;;;5095389;28;20133;-76
2021/08/31 07:23:58;;;;;;;2.63;0.88;;;;;;;;;;5095181;28;20150;-79
2021/08/31 07:26:24;;;;;;;6.55;0.82;;;;;;;;;;5095097;28;20528;-66
2021/08/31 07:28:50;;;;;;;2.28;0.80;;;;;;;;;;5094671;28;20040;-66
2021/08/31 07:31:17;;;;;;;3.03;0.70;;;;;;;;;;5094175;28;20116;-71
2021/08/31 07:33:44;;;;;;;3.58;1.00;;;;;;;;;;5094286;28;20055;-70
2021/08/31 07:36:10;;;;;;;2.92;1.02;;;;;;;;;;5093004;28;20044;-74
2021/08/31 07:38:36;;;;;;;2.20;0.82;;;;;;;;;;5094011;28;20060;-78
2021/08/31 07:41:02;;;;;;;2.33;0.77;;;;;;;;;;5094725;28;20032;-77
2021/08/31 07:43:28;;;;;;;3.50;0.88;;;;;;;;;;5094735;28;20345;-76
2021/08/31 07:45:54;;;;;;;2.83;0.73;;;;;;;;;;5094923;28;20034;-76
2021/08/31 07:48:20;;;;;;;2.17;0.82;;;;;;;;;;5094927;28;20455;-77
2021/08/31 07:50:46;;;;;;;1.67;0.90;;;;;;;;;;5095048;28;20071;-77
2021/08/31 07:53:12;;;;;;;0.85;0.60;;;;;;;;;;5091668;28;20036;-75
2021/08/31 07:55:38;;;;;;;0.88;0.60;;;;;;;;;;5089780;28;20040;-70
2021/08/31 07:58:05;;;;;;;2.38;0.75;;;;;;;;;;5091225;28;20363;-74
2021/08/31 08:00:31;;;;;;;5.15;0.60;;;;;;;;;;5092960;28;20063;-77
2021/08/31 08:02:57;;;;;;;3.50;0.70;;;;;;;;;;5094217;28;20036;-76
2021/08/31 08:05:23;;;;;;;2.10;0.77;;;;;;;;;;5094623;28;20024;-78
2021/08/31 08:07:49;;;;;;;2.00;0.80;;;;;;;;;;5094495;28;20209;-78
2021/08/31 08:10:15;;;;;;;3.78;0.90;;;;;;;;;;5093951;28;20110;-74
2021/08/31 08:12:41;;;;;;;1.00;0.57;;;;;;;;;;5094179;28;20186;-78
2021/08/31 08:15:07;;;;;;;0.90;0.65;;;;;;;;;;5094006;28;20126;-73
2021/08/31 08:17:33;;;;;;;1.77;0.68;;;;;;;;;;5093680;28;20036;-76
2021/08/31 08:19:59;;;;;;;2.72;0.75;;;19.10;68.40;;;;;;5093846;28;20036;-77
2021/08/31 08:22:25;;;;;;;2.42;1.20;;;19.70;69.20;;;;;;5094236;28;20538;-78
2021/08/31 08:24:51;;;;;;;3.55;1.10;;;19.80;69.70;;;;;;5094020;28;20127;-75
2021/08/31 08:27:17;;;;;;;2.72;1.13;;;19.90;69.60;;;;;;5094201;28;20103;-75
2021/08/31 08:29:42;;;;;;;2.05;0.93;;;20.00;70.10;;;;;;5094265;28;20606;-75
2021/08/31 08:32:10;;;;;;;7.05;1.25;;;20.10;68.50;;;;;;5094144;28;20036;-77
2021/08/31 08:34:37;;;;;;;8.52;1.10;;;20.10;68.40;;;;;;5094410;28;20502;-76
2021/08/31 08:37:03;;;;;;;2.15;0.90;;;20.20;68.90;;;;;;5093786;28;20076;-74
2021/08/31 08:39:30;;;;;;;3.50;1.10;;;20.20;69.20;;;;;;5093824;28;20063;-67
2021/08/31 08:41:56;;;;;;;2.33;1.08;;;20.30;68.80;;;;;;5093929;28;20515;-74
2021/08/31 08:44:28;;;;;;;2.13;1.00;;;20.30;68.50;;;;;;5093889;28;20047;-76
2021/08/31 08:46:54;;;;;;;1.38;0.82;;;20.30;67.90;;;;;;5094025;28;20055;-76
2021/08/31 08:49:20;;;;;;;2.30;0.88;;;20.40;68.20;;;;;;5093988;28;20024;-75
2021/08/31 08:51:45;;;;;;;1.30;0.82;;;20.40;68.40;;;;;;5094038;28;20550;-76
2021/08/31 08:54:11;;;;;;;4.40;1.00;;;20.40;67.90;;;;;;5093770;28;20065;-74
2021/08/31 08:56:37;;;;;;;2.60;0.88;;;20.50;67.90;;;;;;5093628;28;20130;-76
2021/08/31 08:59:03;;;;;;;3.35;1.02;;;20.50;68.00;;;;;;5093902;28;20052;-76
2021/08/31 09:01:43;;;;;;;8.30;1.00;;;20.60;69.00;;;;;;5093500;28;20438;-75
2021/08/31 09:04:10;;;;;;;3.22;0.77;;;20.70;67.90;;;;;;5093666;28;20052;-75
2021/08/31 09:06:36;;;;;;;1.80;0.85;;;20.80;68.80;;;;;;5093656;28;20085;-69
2021/08/31 09:09:05;;;;;;;4.18;0.90;;;20.90;68.00;;;;;;5093710;28;20486;-67
2021/08/31 09:11:37;;;;;;;1.85;1.00;;;21.00;67.00;;;;;;5093291;28;20097;-65
2021/08/31 09:14:27;;;;;;;2.78;0.90;;;21.00;66.90;;;;;;5093478;28;20089;-70
2021/08/31 09:16:55;;;;;;;3.50;0.90;;;21.10;66.80;;;;;;5093239;28;20059;-67
2021/08/31 09:19:43;;;;;;;1.02;0.70;;;21.10;67.20;;;;;;5093327;28;20048;-66
2021/08/31 09:22:20;;;;;;;1.00;0.82;;;21.10;67.10;;;;;;5093318;28;20107;-67
2021/08/31 09:25:09;;;;;;;2.25;0.57;;;21.20;66.30;;;;;;5093201;28;20542;-75
2021/08/31 09:27:36;;;;;;;4.38;0.98;;;21.20;65.70;;;;;;5093418;28;20051;-67
2021/08/31 09:30:22;;;;;;;5.55;1.13;;;21.20;65.80;;;;;;5093100;28;20032;-72
2021/08/31 09:33:07;;;;;;;5.40;0.90;;;21.20;65.70;;;;;;5093322;28;20166;-70
2021/08/31 09:35:33;;;;;;;1.20;0.82;;;21.20;65.90;;;;;;5092879;28;20100;-69
2021/08/31 09:38:21;;;;;;;4.18;0.77;;;21.20;65.70;;;;;;5093094;28;20032;-66
2021/08/31 09:40:50;;;;;;;1.67;0.60;;;21.20;66.00;;;;;;5093158;28;20040;-67
2021/08/31 09:43:18;;;;;;;1.83;0.80;;;21.20;65.70;;;;;;5093104;28;20035;-65
2021/08/31 09:45:48;;;;;;;6.25;0.80;;;21.20;65.70;;;;;;5092779;28;20039;-65
2021/08/31 09:48:17;;;;;;;1.60;0.95;;;21.20;66.20;;;;;;5093121;28;20036;-68
2021/08/31 09:50:50;;;;;;;1.40;0.70;;;21.20;66.30;;;;;;5093130;28;20067;-65
2021/08/31 09:53:24;;;;;;;1.60;0.70;;;21.20;66.70;;;;;;5092896;28;20040;-67
2021/08/31 09:56:00;;;;;;;1.10;0.60;;;21.20;66.40;;;;;;5092401;28;20044;-73
2021/08/31 09:58:26;;;;;;;2.85;1.13;;;21.10;64.90;;;;;;5091750;28;20028;-73
2021/08/31 10:00:54;;;;;;;0.52;0.50;;;21.10;65.30;;;;;;5096290;28;20044;-72
2021/08/31 10:03:22;;;;;;;3.53;0.80;;;21.10;65.40;;;;;;5097152;28;20035;-73
2021/08/31 10:05:50;;;;;;;0.57;0.57;;;21.00;65.50;;;;;;5097147;28;20028;-73
2021/08/31 10:08:18;;;;;;;1.58;0.88;;;21.00;65.10;;;;;;5097037;28;20028;-73
2021/08/31 10:10:46;;;;;;;1.52;0.85;;;21.10;65.40;;;;;;5096960;28;20040;-73
2021/08/31 10:13:14;;;;;;;4.18;0.80;;;21.10;66.00;;;;;;5096824;28;20036;-72
2021/08/31 10:15:52;;;;;;;1.38;0.80;;;21.10;66.10;;;;;;5096700;28;20075;-73
2021/08/31 10:18:20;;;;;;;3.03;0.65;;;21.10;64.70;;;;;;5097034;28;20049;-73
2021/08/31 10:20:47;;;;;;;1.60;0.80;;;21.10;64.00;;;;;;5096762;28;20032;-72
2021/08/31 10:23:15;;;;;;;1.05;0.70;;;21.10;64.50;;;;;;5095878;28;20032;-73
2021/08/31 10:25:41;;;;;;;2.47;0.75;;;21.10;64.60;;;;;;5096058;28;20391;-74
2021/08/31 10:28:21;;;;;;;1.58;0.80;;;21.20;65.40;;;;;;5095956;28;20059;-73
2021/08/31 10:30:48;;;;;;;2.15;0.85;;;21.20;64.10;;;;;;5096705;28;20127;-75
2021/08/31 10:33:40;;;;;;;2.08;0.60;;;21.20;65.30;;;;;;5096126;28;20043;-75
2021/08/31 10:36:08;;;;;;;5.50;0.80;;;21.20;65.30;;;;;;5096391;28;20396;-75
2021/08/31 10:38:47;;;;;;;1.27;0.65;;;21.20;66.20;;;;;;5096420;28;20032;-68
2021/08/31 10:41:44;;;;;;;3.03;0.70;;;21.30;65.30;;;;;;5095916;28;20400;-75
2021/08/31 10:44:36;;;;;;;1.00;0.70;;;21.30;65.70;;;;;;5096026;28;20036;-72
2021/08/31 10:47:07;;;;;;;2.03;0.52;;;21.30;66.10;;;;;;5096139;28;20461;-75
2021/08/31 10:50:10;;;;;;;2.03;0.75;;;21.30;66.40;;;;;;5096129;28;20036;-74
2021/08/31 10:52:38;;;;;;;1.48;0.70;;;21.40;66.40;;;;;;5083311;28;20032;-74
2021/08/31 10:55:06;;;;;;;1.25;0.60;;;21.40;67.10;;;;;;5095952;28;20496;-74
2021/08/31 10:57:35;;;;;;;1.45;0.98;;;21.50;66.20;;;;;;5096043;28;20047;-74
2021/08/31 11:00:21;;;;;;;2.78;0.70;;;21.60;66.40;;;;;;5095839;28;20529;-75
2021/08/31 11:02:46;;;;;;;1.25;0.80;;;21.60;66.00;;;;;;5081355;28;20039;-75
2021/08/31 11:05:18;;;;;;;2.50;0.75;;;21.70;66.80;;;;;;5095855;28;20469;-74
2021/08/31 11:08:04;;;;;;;1.52;0.70;;;21.70;65.40;;;;;;5095632;28;20044;-75
2021/08/31 11:10:34;;;;;;;4.43;1.13;;;21.90;65.60;;;;;;5080628;28;20032;-76
2021/08/31 11:13:17;;;;;;;3.38;0.75;;;22.00;64.00;;;;;;5095329;28;20466;-74
2021/08/31 11:15:47;;;;;;;4.70;0.70;;;22.10;64.50;;;;;;5095447;28;20098;-76
2021/08/31 11:18:14;;;;;;;2.20;1.00;;;22.20;65.10;;;;;;5095083;28;20028;-75
2021/08/31 11:20:42;;;;;;;3.88;0.80;;;22.30;64.40;;;;;;5094352;28;20027;-75
2021/08/31 11:23:20;;;;;;;2.85;0.80;;;22.30;64.00;;;;;;5094760;28;20491;-71
2021/08/31 11:26:06;;;;;;;2.25;0.90;;;22.40;63.30;;;;;;5095300;28;20040;-75
2021/08/31 11:28:33;;;;;;;2.67;0.90;;;22.50;64.50;;;;;;5094631;28;20522;-76
2021/08/31 11:31:00;;;;;;;2.53;0.75;;;22.60;64.90;;;;;;5092496;28;20226;-75
2021/08/31 11:33:27;;;;;;;2.97;0.90;;;22.60;64.00;;;;;;5092373;28;20036;-78
2021/08/31 11:36:06;;;;;;;2.85;1.10;;;22.60;63.10;;;;;;5092895;28;20510;-76
2021/08/31 11:38:32;;;;;;;1.55;0.90;;;22.60;62.90;;;;;;5094960;28;20384;-75
2021/08/31 11:41:16;;;;;;;3.25;0.80;;;22.60;62.90;;;;;;5095144;28;20040;-75
2021/08/31 11:43:42;;;;;;;2.25;0.88;;;22.70;62.60;;;;;;5095160;28;20399;-74
2021/08/31 11:46:09;;;;;;;2.83;0.93;;;22.80;63.60;;;;;;5094657;28;20058;-76
2021/08/31 11:48:35;;;;;;;2.63;0.90;;;22.80;62.50;;;;;;5095330;28;20493;-75
2021/08/31 11:51:02;;;;;;;2.03;1.00;;;22.80;62.80;;;;;;5094968;28;20028;-75
2021/08/31 11:53:28;;;;;;;1.80;0.90;;;22.80;62.80;;;;;;5093627;28;20389;-75
2021/08/31 11:56:05;;;;;;;4.43;1.10;;;22.90;63.70;;;;;;5093084;28;20433;-75
2021/08/31 11:58:44;;;;;;;2.88;0.90;;;22.90;62.90;;;;;;5094720;28;20031;-75
2021/08/31 12:01:10;;;;;;;2.63;1.02;;;23.00;61.50;;;;;;5094352;28;20036;-76
2021/08/31 12:03:35;;;;;;;1.67;1.00;;;23.00;61.30;;;;;;5094629;28;20358;-73
2021/08/31 12:06:04;;;;;;;3.40;1.60;;;23.00;61.70;;;;;;5094575;28;20032;-73
2021/08/31 12:08:32;;;;;;;5.95;1.10;;;23.00;60.30;;;;;;5094483;28;20055;-72
2021/08/31 12:10:58;;;;;;;2.55;1.08;;;23.10;60.70;;;;;;5094441;28;20362;-72
2021/08/31 12:13:25;;;;;;;2.90;0.95;;;23.00;61.80;;;;;;5094393;28;20085;-74
2021/08/31 12:15:55;;;;;;;1.60;0.90;;;23.20;63.00;;;;;;5093957;28;20048;-74
2021/08/31 12:18:24;;;;;;;6.13;0.90;;;23.30;62.60;;;;;;5094225;28;20034;-76
2021/08/31 12:20:50;;;;;;;4.15;1.23;;;;;;;;;;5093609;28;20055;-74
2021/08/31 12:23:16;;;;;;;1.60;0.85;;;;;;;;;;5090962;28;20036;-73
2021/08/31 12:25:42;;;;;;;4.45;1.10;;;;;;;;;;5091046;28;20505;-75
2021/08/31 12:28:08;;;;;;;1.92;1.00;;;23.50;60.70;;;;;;5093915;28;20070;-77
2021/08/31 12:30:42;;;;;;;2.65;0.98;;;23.70;59.70;;;;;;5093966;28;20071;-67
2021/08/31 12:33:10;;;;;;;4.90;0.90;;;23.80;60.90;;;;;;5094253;28;20050;-75
2021/08/31 12:35:42;;;;;;;5.75;1.40;;;23.90;59.40;;;;;;5093852;28;20130;-73
2021/08/31 12:38:17;;;;;;;5.13;0.90;;;23.90;59.30;;;;;;5093876;28;20389;-76
2021/08/31 12:40:56;;;;;;;2.65;0.95;;;24.00;58.70;;;;;;5093644;28;20032;-75
2021/08/31 12:43:25;;;;;;;5.03;0.95;;;24.10;59.00;;;;;;5093826;28;20058;-74
2021/08/31 12:45:52;;;;;;;3.30;0.98;;;;;;;;;;5093763;28;20040;-75
2021/08/31 12:48:19;;;;;;;4.95;0.90;;;;;;;;;;5093639;28;20042;-76
2021/08/31 12:50:50;;;;;;;2.53;1.10;;;;;;;;;;5093204;28;20035;-75
2021/08/31 12:53:16;;;;;;;2.40;1.00;;;;;;;;;;5093377;28;20060;-71
2021/08/31 12:55:43;;;;;;;7.47;0.93;;;;;;;;;;5093414;28;20044;-72
2021/08/31 12:58:27;;;;;;;2.30;0.93;;;;;;;;;;5093456;28;20032;-73
2021/08/31 13:01:12;;;;;;;8.82;1.00;;;;;;;;;;5075400;28;20105;-72
2021/08/31 13:03:38;;;;;;;2.00;1.00;;;;;;;;;;5075095;28;20070;-74
2021/08/31 13:06:05;;;;;;;3.03;1.00;;;;;;;;;;5093582;28;20032;-75
2021/08/31 13:08:32;;;;;;;2.53;0.90;;;;;;;;;;5093265;28;20043;-71
2021/08/31 13:10:58;;;;;;;3.97;0.82;;;;;;;;;;5093163;28;20056;-75
2021/08/31 13:13:28;;;;;;;4.00;1.15;;;;;;;;;;5093156;28;20063;-73
2021/08/31 13:15:54;;;;;;;1.55;0.88;;;;;;;;;;5093268;28;20047;-73
2021/08/31 13:18:20;;;;;;;4.35;1.20;;;;;;;;;;5093159;28;20036;-71
2021/08/31 13:20:46;;;;;;;1.63;1.02;;;;;;;;;;5093129;28;20036;-74
2021/08/31 13:23:12;;;;;;;6.15;1.20;;;;;;;;;;5092706;28;20040;-71
2021/08/31 13:25:38;;;;;;;1.80;1.10;;;;;;;;;;5093042;28;20040;-71
2021/08/31 13:28:06;;;;;;;2.28;1.10;;;;;;;;;;5093108;28;20028;-72
2021/08/31 13:30:32;;;;;;;4.45;1.42;;;;;;;;;;5093208;28;20025;-74
2021/08/31 13:32:58;;;;;;;5.13;1.02;;;;;;;;;;5093255;28;20407;-75
2021/08/31 13:35:24;;;;;;;4.03;0.90;;;;;;;;;;5092071;28;20036;-73
2021/08/31 13:37:50;;;;;;;4.85;1.20;;;;;;;;;;5093241;28;20032;-73
2021/08/31 13:40:16;;;;;;;2.33;1.20;;;;;;;;;;5093172;28;20075;-72
2021/08/31 13:42:43;;;;;;;3.78;1.00;;;;;;;;;;5093214;28;20040;-74
2021/08/31 13:45:09;;;;;;;4.18;1.00;;;;;;;;;;5092896;28;20034;-70
2021/08/31 13:47:35;;;;;;;3.33;0.90;;;;;;;;;;5091760;28;20059;-75
2021/08/31 13:50:01;;;;;;;4.70;1.00;;;;;;;;;;5091198;28;20064;-73
2021/08/31 13:52:27;;;;;;;4.53;1.20;;;;;;;;;;5093071;28;20039;-74
2021/08/31 13:54:53;;;;;;;6.25;1.20;;;;;;;;;;5093011;28;20093;-74
2021/08/31 13:57:19;;;;;;;6.05;1.30;;;;;;;;;;5092880;28;20044;-74
2021/08/31 13:59:45;;;;;;;3.30;1.20;;;;;;;;;;5093114;28;20028;-74
2021/08/31 14:02:11;;;;;;;4.95;1.40;;;;;;;;;;5092938;28;20377;-74
2021/08/31 14:04:37;;;;;;;4.75;1.40;;;;;;;;;;5092992;28;20039;-74
2021/08/31 14:07:04;;;;;;;2.67;1.10;;;;;;;;;;5092754;28;20036;-74
2021/08/31 14:09:30;;;;;;;3.47;1.48;;;;;;;;;;5074811;28;20029;-74